^^
Station Historical Data
 
Daily Summary for February 23, 2019 Units:  Metric    English   Both
Next Day »
Daily Weekly Monthly Yearly Custom
  Current: High: Low: Average:
Temperature: 1.0 °C 1.0 °C -9.1 °C -5.9 °C
Dew Point: -6.6 °C -6.5 °C -11.3 °C -9.5 °C
Humidity: 57% 87% 55% 77%
Wind Speed: 0.2km/h 9.2km/h 0.0km/h 0.4km/h
Wind Gust: 5.6km/h 13.0km/h - -
WindSE - - SSE
Pressure: 1030.5 hPa 1033.8 hPa 1030.5 hPa -
Precipitation: 0.0 mm      
Historical Graphs
 
 
These are the results of the file assigned to $inboxfile in your configuration

Weather Camera

Quebec Radar

This and the area below are optional for those who wish to use them.



This begins the code in the file assigned to $outboxfile in your configuration
 height=
Find more about Weather in Pointe-Claire, CA
Click for weather forecast
Tabular Data for February 23, 2019
Time Temperature Dew Point Pressure Wind Wind Speed Wind Gust Humidity Rainfall Rate (Hourly) solar Conditions
00:04 -6.2 °C -10.1 °C 1032.3 hPa Calm     74% 0.0 mm 0.00 W/m2 FEW
00:09 -6.3 °C -10.2 °C 1032.2 hPa Calm     74% 0.0 mm 0.00 W/m2 FEW
00:14 -6.6 °C -10.4 °C 1032.2 hPa Calm     74% 0.0 mm 0.00 W/m2 FEW
00:19 -6.7 °C -10.6 °C 1032.2 hPa Calm     74% 0.0 mm 0.00 W/m2 FEW
00:24 -6.9 °C -10.7 °C 1032.1 hPa Calm     74% 0.0 mm 0.00 W/m2 FEW
00:29 -7.1 °C -10.7 °C 1032.2 hPa Calm     75% 0.0 mm 0.00 W/m2 FEW
00:34 -7.2 °C -10.9 °C 1032.2 hPa Calm     75% 0.0 mm 0.00 W/m2 FEW
00:39 -7.3 °C -11.0 °C 1032.2 hPa Calm     75% 0.0 mm 0.00 W/m2 FEW
00:44 -7.6 °C -11.2 °C 1032.2 hPa Calm     75% 0.0 mm 0.00 W/m2 FEW
00:49 -7.7 °C -11.2 °C 1032.2 hPa Calm     76% 0.0 mm 0.00 W/m2 FEW
00:54 -7.7 °C -11.1 °C 1032.3 hPa Calm     77% 0.0 mm 0.00 W/m2 FEW
00:59 -7.7 °C -11.1 °C 1032.2 hPa Calm     77% 0.0 mm 0.00 W/m2 FEW
01:04 -7.9 °C -11.3 °C 1032.3 hPa Calm     77% 0.0 mm 0.00 W/m2 FEW
01:09 -8.0 °C -11.2 °C 1032.2 hPa Calm     78% 0.0 mm 0.00 W/m2 FEW
01:14 -8.0 °C -11.2 °C 1032.3 hPa Calm     78% 0.0 mm 0.00 W/m2 FEW
01:19 -8.1 °C -11.2 °C 1032.3 hPa Calm     78% 0.0 mm 0.00 W/m2 SKC
01:24 -8.1 °C -11.1 °C 1032.3 hPa Calm     79% 0.0 mm 0.00 W/m2 SKC
01:29 -8.0 °C -10.8 °C 1032.4 hPa Calm     80% 0.0 mm 0.00 W/m2 SKC
01:34 -7.9 °C -10.8 °C 1032.6 hPa Calm     80% 0.0 mm 0.00 W/m2 SKC
01:39 -7.9 °C -10.6 °C 1032.5 hPa Calm     81% 0.0 mm 0.00 W/m2 SKC
01:44 -7.8 °C -10.5 °C 1032.6 hPa Calm     81% 0.0 mm 0.00 W/m2 SKC
01:49 -7.8 °C -10.3 °C 1032.6 hPa Calm     82% 0.0 mm 0.00 W/m2 SKC
01:54 -7.7 °C -10.2 °C 1032.7 hPa Calm     82% 0.0 mm 0.00 W/m2 SKC
01:59 -7.7 °C -10.2 °C 1032.8 hPa Calm     82% 0.0 mm 0.00 W/m2 SKC
02:04 -7.7 °C -10.2 °C 1033.0 hPa Calm     82% 0.0 mm 0.00 W/m2 SKC
02:09 -7.7 °C -10.2 °C 1033.1 hPa Calm     82% 0.0 mm 0.00 W/m2 SKC
02:14 -7.7 °C -10.2 °C 1032.9 hPa Calm     82% 0.0 mm 0.00 W/m2 SKC
02:19 -7.7 °C -10.2 °C 1032.8 hPa Calm     82% 0.0 mm 0.00 W/m2 SKC
02:24 -7.7 °C -10.3 °C 1033.1 hPa SW 0.3 km/h   82% 0.0 mm 0.00 W/m2 SKC
02:29 -7.8 °C -10.3 °C 1033.1 hPa Calm     82% 0.0 mm 0.00 W/m2 SKC
02:34 -7.8 °C -10.4 °C 1033.0 hPa Calm     82% 0.0 mm 0.00 W/m2 SKC
02:39 -7.9 °C -10.4 °C 1033.0 hPa Calm     82% 0.0 mm 0.00 W/m2 SKC
02:44 -7.9 °C -10.3 °C 1033.0 hPa Calm     83% 0.0 mm 0.00 W/m2 SKC
02:49 -8.0 °C -10.4 °C 1032.9 hPa Calm     83% 0.0 mm 0.00 W/m2 SKC
02:54 -8.1 °C -10.4 °C 1032.9 hPa Calm     83% 0.0 mm 0.00 W/m2 SKC
02:59 -8.1 °C -10.5 °C 1033.0 hPa Calm     83% 0.0 mm 0.00 W/m2 SKC
03:04 -8.2 °C -10.6 °C 1032.9 hPa Calm     83% 0.0 mm 0.00 W/m2 SKC
03:09 -8.2 °C -10.6 °C 1032.9 hPa Calm     83% 0.0 mm 0.00 W/m2 SKC
03:14 -8.2 °C -10.6 °C 1032.8 hPa Calm     83% 0.0 mm 0.00 W/m2 SKC
03:19 -8.2 °C -10.6 °C 1032.8 hPa Calm     83% 0.0 mm 0.00 W/m2 FEW
03:24 -8.2 °C -10.6 °C 1032.8 hPa Calm     83% 0.0 mm 0.00 W/m2 FEW
03:29 -8.2 °C -10.4 °C 1032.9 hPa Calm     84% 0.0 mm 0.00 W/m2 FEW
03:34 -8.3 °C -10.5 °C 1033.0 hPa Calm     84% 0.0 mm 0.00 W/m2 FEW
03:39 -8.3 °C -10.7 °C 1033.0 hPa Calm     83% 0.0 mm 0.00 W/m2 FEW
03:44 -8.4 °C -10.8 °C 1032.9 hPa Calm     83% 0.0 mm 0.00 W/m2 FEW
03:49 -8.4 °C -10.7 °C 1033.0 hPa Calm     84% 0.0 mm 0.00 W/m2 FEW
03:54 -8.5 °C -10.9 °C 1033.1 hPa Calm     83% 0.0 mm 0.00 W/m2 FEW
03:59 -8.5 °C -10.7 °C 1033.1 hPa Calm     84% 0.0 mm 0.00 W/m2 FEW
04:04 -8.6 °C -10.8 °C 1033.0 hPa Calm     84% 0.0 mm 0.00 W/m2 FEW
04:09 -8.6 °C -10.8 °C 1033.0 hPa Calm     84% 0.0 mm 0.00 W/m2 FEW
04:14 -8.5 °C -10.7 °C 1033.0 hPa Calm     84% 0.0 mm 0.00 W/m2 FEW
04:19 -8.5 °C -10.7 °C 1033.0 hPa Calm     84% 0.0 mm 0.00 W/m2 FEW
04:24 -8.5 °C -10.6 °C 1033.1 hPa Calm     85% 0.0 mm 0.00 W/m2 FEW
04:29 -8.5 °C -10.6 °C 1033.0 hPa Calm     85% 0.0 mm 0.00 W/m2 FEW
04:34 -8.6 °C -10.6 °C 1033.1 hPa Calm     85% 0.0 mm 0.00 W/m2 FEW
04:39 -8.6 °C -10.6 °C 1033.1 hPa Calm     85% 0.0 mm 0.00 W/m2 FEW
04:44 -8.6 °C -10.6 °C 1033.3 hPa Calm     85% 0.0 mm 0.00 W/m2 FEW
04:49 -8.6 °C -10.7 °C 1033.3 hPa Calm     85% 0.0 mm 0.00 W/m2 FEW
04:54 -8.7 °C -10.9 °C 1033.4 hPa Calm     84% 0.0 mm 0.00 W/m2 FEW
04:59 -8.9 °C -11.1 °C 1033.5 hPa Calm     84% 0.0 mm 0.00 W/m2 FEW
05:04 -9.1 °C -11.3 °C 1033.4 hPa Calm     84% 0.0 mm 0.00 W/m2 FEW
05:09 -9.1 °C -11.3 °C 1033.5 hPa Calm     84% 0.0 mm 0.00 W/m2 FEW
05:14 -9.1 °C -11.3 °C 1033.5 hPa Calm     84% 0.0 mm 0.00 W/m2 FEW
05:19 -9.1 °C -11.1 °C 1033.7 hPa Calm     85% 0.0 mm 0.00 W/m2 BKN
05:24 -9.1 °C -11.2 °C 1033.6 hPa Calm     85% 0.0 mm 0.00 W/m2 BKN
05:29 -9.1 °C -11.2 °C 1033.7 hPa Calm     85% 0.0 mm 0.00 W/m2 BKN
05:34 -9.1 °C -11.1 °C 1033.5 hPa Calm     85% 0.0 mm 0.00 W/m2 BKN
05:39 -9.1 °C -11.1 °C 1033.5 hPa Calm     85% 0.0 mm 0.00 W/m2 BKN
05:44 -9.1 °C -10.9 °C 1033.5 hPa Calm     86% 0.0 mm 0.00 W/m2 BKN
05:49 -9.0 °C -10.9 °C 1033.4 hPa Calm     86% 0.0 mm 0.00 W/m2 BKN
05:54 -9.0 °C -10.9 °C 1033.4 hPa Calm     86% 0.0 mm 0.00 W/m2 BKN
05:59 -8.9 °C -10.8 °C 1033.4 hPa Calm     86% 0.0 mm 0.00 W/m2 BKN
06:04 -8.9 °C -10.8 °C 1033.5 hPa Calm     86% 0.0 mm 0.00 W/m2 BKN
06:09 -8.8 °C -10.7 °C 1033.5 hPa Calm     86% 0.0 mm 0.00 W/m2 BKN
06:14 -8.8 °C -10.7 °C 1033.4 hPa Calm     86% 0.0 mm 0.00 W/m2 BKN
06:19 -8.8 °C -10.7 °C 1033.4 hPa Calm     86% 0.0 mm 0.00 W/m2 BKN
06:24 -8.7 °C -10.7 °C 1033.2 hPa Calm     86% 0.0 mm 0.00 W/m2 BKN
06:29 -8.7 °C -10.7 °C 1033.4 hPa Calm     86% 0.0 mm 0.00 W/m2 BKN
06:34 -8.7 °C -10.6 °C 1033.2 hPa Calm     86% 0.0 mm 0.00 W/m2 BKN
06:39 -8.7 °C -10.6 °C 1033.1 hPa Calm     86% 0.0 mm 0.00 W/m2 BKN
06:44 -8.7 °C -10.6 °C 1033.1 hPa Calm     86% 0.0 mm 0.00 W/m2 BKN
06:49 -8.6 °C -10.6 °C 1033.1 hPa Calm     86% 0.0 mm 5.00 W/m2 BKN
06:54 -8.6 °C -10.5 °C 1033.2 hPa Calm     86% 0.0 mm 9.00 W/m2 BKN
06:59 -8.6 °C -10.5 °C 1033.2 hPa Calm     86% 0.0 mm 14.00 W/m2 BKN
07:04 -8.5 °C -10.4 °C 1033.4 hPa Calm     86% 0.0 mm 16.00 W/m2 BKN
07:09 -8.5 °C -10.4 °C 1033.5 hPa Calm     86% 0.0 mm 23.00 W/m2 BKN
07:14 -8.6 °C -10.6 °C 1033.5 hPa Calm     86% 0.0 mm 26.00 W/m2 BKN
07:19 -8.7 °C -10.6 °C 1033.6 hPa Calm     86% 0.0 mm 28.00 W/m2 BKN
07:24 -8.7 °C -10.7 °C 1033.6 hPa Calm     86% 0.0 mm 33.00 W/m2 BKN
07:29 -8.8 °C -10.7 °C 1033.6 hPa Calm     86% 0.0 mm 39.00 W/m2 BKN
07:34 -8.9 °C -10.8 °C 1033.7 hPa Calm   3.7 km/h 86% 0.0 mm 42.00 W/m2 BKN
07:39 -9.0 °C -11.1 °C 1033.7 hPa Calm     85% 0.0 mm 46.00 W/m2 BKN
07:44 -9.1 °C -11.1 °C 1033.6 hPa Calm     85% 0.0 mm 62.00 W/m2 BKN
07:49 -9.1 °C -10.9 °C 1033.7 hPa Calm     86% 0.0 mm 95.00 W/m2 BKN
07:54 -9.0 °C -10.9 °C 1033.7 hPa Calm     86% 0.0 mm 109.00 W/m2 BKN
07:59 -8.9 °C -10.8 °C 1033.7 hPa Calm     86% 0.0 mm 113.00 W/m2 BKN
08:04 -8.7 °C -10.7 °C 1033.8 hPa Calm     86% 0.0 mm 104.00 W/m2 BKN
08:09 -8.6 °C -10.6 °C 1033.8 hPa Calm     86% 0.0 mm 97.00 W/m2 BKN
08:14 -8.4 °C -10.4 °C 1033.7 hPa Calm     86% 0.0 mm 100.00 W/m2 BKN
08:19 -8.2 °C -10.0 °C 1033.6 hPa Calm     87% 0.0 mm 93.00 W/m2 BKN
08:24 -8.1 °C -9.8 °C 1033.7 hPa Calm     87% 0.0 mm 100.00 W/m2 BKN
08:29 -7.8 °C -9.6 °C 1033.8 hPa Calm     87% 0.0 mm 104.00 W/m2 BKN
08:34 -7.6 °C -9.5 °C 1033.8 hPa Calm     86% 0.0 mm 128.00 W/m2 BKN
08:39 -7.3 °C -9.2 °C 1033.6 hPa Calm     86% 0.0 mm 292.00 W/m2 BKN
08:44 -7.0 °C -8.9 °C 1033.7 hPa Calm     86% 0.0 mm 366.00 W/m2 BKN
08:49 -6.8 °C -8.9 °C 1033.6 hPa SSW 0.3 km/h 3.7 km/h 85% 0.0 mm 380.00 W/m2 BKN
08:54 -6.6 °C -8.7 °C 1033.5 hPa Calm     85% 0.0 mm 396.00 W/m2 BKN
08:59 -6.3 °C -8.6 °C 1033.5 hPa Calm     84% 0.0 mm 408.00 W/m2 BKN
09:04 -6.0 °C -8.3 °C 1033.2 hPa Calm     84% 0.0 mm 420.00 W/m2 BKN
09:09 -5.7 °C -8.1 °C 1033.3 hPa Calm     83% 0.0 mm 434.00 W/m2 BKN
09:14 -5.2 °C -7.8 °C 1033.3 hPa Calm     82% 0.0 mm 445.00 W/m2 BKN
09:19 -4.8 °C -7.7 °C 1033.1 hPa Calm     80% 0.0 mm 459.00 W/m2 SCT
09:24 -4.4 °C -7.7 °C 1033.1 hPa Calm     78% 0.0 mm 471.00 W/m2 SCT
09:29 -4.2 °C -7.6 °C 1033.0 hPa Calm     77% 0.0 mm 483.00 W/m2 SCT
09:34 -4.1 °C -7.7 °C 1032.9 hPa Calm     76% 0.0 mm 496.00 W/m2 SCT
09:39 -3.9 °C -7.7 °C 1032.8 hPa Calm     75% 0.0 mm 506.00 W/m2 SCT
09:44 -3.7 °C -7.5 °C 1032.7 hPa Calm     75% 0.0 mm 517.00 W/m2 SCT
09:49 -3.6 °C -7.3 °C 1032.8 hPa Calm     75% 0.0 mm 526.00 W/m2 SCT
09:54 -3.2 °C -7.2 °C 1032.7 hPa ESE 0.6 km/h   74% 0.0 mm 540.00 W/m2 SCT
09:59 -2.9 °C -7.3 °C 1032.4 hPa SE 4.0 km/h 6.4 km/h 72% 0.0 mm 552.00 W/m2 SCT
10:04 -2.8 °C -7.3 °C 1032.3 hPa SE 0.3 km/h 4.8 km/h 71% 0.0 mm 552.00 W/m2 SCT
10:09 -2.6 °C -7.3 °C 1032.2 hPa SSE 0.2 km/h 5.6 km/h 70% 0.0 mm 538.00 W/m2 SCT
10:14 -2.5 °C -7.2 °C 1032.0 hPa SSE 0.6 km/h 5.6 km/h 70% 0.0 mm 550.00 W/m2 SCT
10:19 -2.3 °C -7.0 °C 1032.0 hPa Calm     70% 0.0 mm 561.00 W/m2 FEW
10:24 -2.1 °C -7.1 °C 1031.9 hPa SSE 1.6 km/h 4.8 km/h 69% 0.0 mm 547.00 W/m2 FEW
10:29 -2.0 °C -7.1 °C 1032.0 hPa South 5.8 km/h 6.4 km/h 68% 0.0 mm 548.00 W/m2 FEW
10:34 -1.9 °C -7.2 °C 1032.1 hPa Calm     67% 0.0 mm 554.00 W/m2 FEW
10:39 -1.8 °C -7.3 °C 1032.0 hPa South 1.8 km/h 6.4 km/h 66% 0.0 mm 584.00 W/m2 FEW
10:44 -1.6 °C -7.3 °C 1031.9 hPa Calm     65% 0.0 mm 591.00 W/m2 FEW
10:49 -1.4 °C -7.3 °C 1032.0 hPa Calm     64% 0.0 mm 599.00 W/m2 FEW
10:54 -1.2 °C -7.4 °C 1031.9 hPa Calm     63% 0.0 mm 608.00 W/m2 FEW
10:59 -0.9 °C -7.3 °C 1031.9 hPa Calm     62% 0.0 mm 640.00 W/m2 FEW
11:04 -0.8 °C -7.4 °C 1031.7 hPa Calm     61% 0.0 mm 636.00 W/m2 FEW
11:09 -0.6 °C -7.2 °C 1031.8 hPa Calm     61% 0.0 mm 606.00 W/m2 FEW
11:14 -0.4 °C -7.4 °C 1031.7 hPa Calm     59% 0.0 mm 638.00 W/m2 FEW
11:19 -0.3 °C -7.3 °C 1031.6 hPa South 0.6 km/h 7.4 km/h 59% 0.0 mm 666.00 W/m2 BKN
11:24 -0.1 °C -7.2 °C 1031.6 hPa SE 1.6 km/h 5.6 km/h 59% 0.0 mm 631.00 W/m2 BKN
11:29 0.0 °C -7.3 °C 1031.6 hPa Calm   5.6 km/h 58% 0.0 mm 647.00 W/m2 BKN
11:34 0.2 °C -7.1 °C 1031.6 hPa SSE 2.7 km/h 8.0 km/h 58% 0.0 mm 624.00 W/m2 BKN
11:39 0.2 °C -7.3 °C 1031.7 hPa Calm     57% 0.0 mm 506.00 W/m2 BKN
11:44 0.2 °C -7.3 °C 1031.6 hPa South 0.5 km/h 3.2 km/h 57% 0.0 mm 548.00 W/m2 BKN
11:49 0.2 °C -7.6 °C 1031.6 hPa Calm   1.9 km/h 56% 0.0 mm 650.00 W/m2 BKN
11:54 0.3 °C -7.3 °C 1031.6 hPa Calm     57% 0.0 mm 601.00 W/m2 BKN
11:59 0.4 °C -7.3 °C 1031.5 hPa Calm   3.7 km/h 56% 0.0 mm 603.00 W/m2 BKN
12:04 0.6 °C -7.2 °C 1031.4 hPa Calm     56% 0.0 mm 325.00 W/m2 BKN
12:09 0.7 °C -7.1 °C 1031.2 hPa Calm   1.9 km/h 56% 0.0 mm 496.00 W/m2 BKN
12:14 0.7 °C -7.1 °C 1031.2 hPa South 1.1 km/h 5.6 km/h 56% 0.0 mm 621.00 W/m2 BKN
12:19 0.7 °C -7.1 °C 1031.0 hPa SSE 2.1 km/h 9.3 km/h 56% 0.0 mm 566.00 W/m2 BKN
12:24 0.7 °C -7.1 °C 1030.9 hPa South 3.9 km/h 6.4 km/h 56% 0.0 mm 652.00 W/m2 BKN
12:29 0.7 °C -7.1 °C 1030.9 hPa South 5.0 km/h 8.0 km/h 56% 0.0 mm 631.00 W/m2 BKN
12:34 0.8 °C -7.0 °C 1030.9 hPa ESE 0.2 km/h 1.9 km/h 56% 0.0 mm 636.00 W/m2 BKN
12:39 0.9 °C -6.9 °C 1030.8 hPa South 6.1 km/h 11.1 km/h 56% 0.0 mm 640.00 W/m2 BKN
12:44 0.9 °C -6.9 °C 1030.8 hPa South 0.2 km/h 7.4 km/h 56% 0.0 mm 598.00 W/m2 BKN
12:49 1.0 °C -6.8 °C 1030.9 hPa South 3.2 km/h 11.1 km/h 56% 0.0 mm 626.00 W/m2 BKN
12:54 0.9 °C -7.1 °C 1030.9 hPa SE 3.4 km/h 11.1 km/h 55% 0.0 mm 610.00 W/m2 BKN
12:59 0.9 °C -6.9 °C 1030.9 hPa South 9.2 km/h 13.0 km/h 56% 0.0 mm 629.00 W/m2 BKN
13:04 0.8 °C -7.0 °C 1030.8 hPa South 6.9 km/h 11.3 km/h 56% 0.0 mm 610.00 W/m2 BKN
13:09 0.8 °C -6.8 °C 1030.7 hPa SSW 8.0 km/h 11.1 km/h 57% 0.0 mm 571.00 W/m2 BKN
13:14 0.8 °C -6.5 °C 1030.5 hPa SSE 0.2 km/h 5.6 km/h 58% 0.0 mm 592.00 W/m2 BKN
13:19 1.0 °C -6.6 °C 1030.5 hPa SE 0.2 km/h 5.6 km/h 57% 0.0 mm 582.00 W/m2 SCT
Pointe-Claire Weather